createdAt,value
2024-01-06T00:01:23.073Z,35.28
2024-01-06T00:03:50.298Z,33.65
2024-01-06T00:06:17.848Z,31.60
2024-01-06T00:08:45.063Z,30.15
2024-01-06T00:11:12.482Z,29.73
2024-01-06T00:13:39.661Z,30.33
2024-01-06T00:16:07.741Z,29.00
2024-01-06T00:18:34.961Z,31.73
2024-01-06T00:21:02.603Z,30.30
2024-01-06T00:23:29.776Z,28.42
2024-01-06T00:25:57.943Z,25.70
2024-01-06T00:28:25.441Z,27.98
2024-01-06T00:30:52.947Z,25.77
2024-01-06T00:33:20.177Z,27.50
2024-01-06T00:35:47.570Z,27.50
2024-01-06T00:38:14.673Z,29.17
2024-01-06T00:40:42.157Z,24.25
2024-01-06T00:43:09.284Z,27.85
2024-01-06T00:45:36.775Z,25.70
2024-01-06T00:48:04.149Z,26.20
2024-01-06T00:50:31.604Z,25.90
2024-01-06T00:52:58.776Z,26.58
2024-01-06T00:55:26.842Z,22.95
2024-01-06T00:57:53.947Z,23.73
2024-01-06T01:00:21.593Z,25.13
2024-01-06T01:02:48.662Z,24.40
2024-01-06T01:05:16.173Z,23.52
2024-01-06T01:07:43.265Z,21.45
2024-01-06T01:10:10.990Z,20.33
2024-01-06T01:12:38.282Z,21.40
2024-01-06T01:15:06.024Z,21.75
2024-01-06T01:17:33.267Z,20.10
2024-01-06T01:20:00.841Z,18.33
2024-01-06T01:22:28.128Z,19.52
2024-01-06T01:24:55.570Z,16.05
2024-01-06T01:27:22.757Z,17.23
2024-01-06T01:29:53.968Z,16.88
2024-01-06T01:32:21.733Z,17.80
2024-01-06T01:34:49.236Z,19.08
2024-01-06T01:37:17.011Z,17.35
2024-01-06T01:39:44.386Z,17.98
2024-01-06T01:42:11.544Z,18.35
2024-01-06T01:44:38.963Z,17.08
2024-01-06T01:47:06.412Z,17.80
2024-01-06T01:49:34.305Z,19.30
2024-01-06T01:52:01.669Z,23.38
2024-01-06T01:54:29.215Z,21.75
2024-01-06T01:56:56.675Z,21.90
2024-01-06T01:59:24.192Z,21.40
2024-01-06T02:01:51.407Z,21.35
2024-01-06T02:04:18.924Z,18.67
2024-01-06T02:06:46.036Z,19.33
2024-01-06T02:09:13.528Z,21.13
2024-01-06T02:11:40.577Z,21.55
2024-01-06T02:14:08.052Z,21.02
2024-01-06T02:16:35.148Z,19.08
2024-01-06T02:19:03.258Z,18.95
2024-01-06T02:21:34.641Z,17.63
2024-01-06T02:24:02.398Z,19.60
2024-01-06T02:26:29.553Z,21.08
2024-01-06T02:28:56.907Z,21.17
2024-01-06T02:31:24.099Z,19.15
2024-01-06T02:33:51.699Z,19.70
2024-01-06T02:36:19.054Z,19.55
2024-01-06T02:38:46.703Z,17.67
2024-01-06T02:41:13.834Z,18.88
2024-01-06T02:43:41.298Z,19.92
2024-01-06T02:46:08.776Z,22.38
2024-01-06T02:48:36.339Z,18.02
2024-01-06T02:51:03.630Z,18.95
2024-01-06T02:53:31.085Z,18.27
2024-01-06T02:55:58.268Z,21.80
2024-01-06T02:58:25.878Z,21.00
2024-01-06T03:00:53.058Z,19.52
2024-01-06T03:03:20.643Z,19.35
2024-01-06T03:05:50.730Z,18.40
2024-01-06T03:08:18.231Z,17.67
2024-01-06T03:10:45.443Z,19.77
2024-01-06T03:13:12.814Z,19.95
2024-01-06T03:15:40.009Z,20.10
2024-01-06T03:18:07.665Z,21.48
2024-01-06T03:20:34.927Z,19.30
2024-01-06T03:23:02.369Z,19.25
2024-01-06T03:25:29.658Z,19.98
2024-01-06T03:27:57.214Z,20.63
2024-01-06T03:30:24.482Z,21.73
2024-01-06T03:32:52.055Z,23.23
2024-01-06T03:35:19.106Z,22.60
2024-01-06T03:37:46.606Z,25.85
2024-01-06T03:40:14.036Z,23.95
2024-01-06T03:42:41.649Z,23.88
2024-01-06T03:45:09.248Z,22.42
2024-01-06T03:47:36.960Z,23.48
2024-01-06T03:50:04.458Z,23.17
2024-01-06T03:52:31.963Z,24.77
2024-01-06T03:54:59.191Z,24.40
2024-01-06T03:57:26.661Z,21.90
2024-01-06T03:59:53.813Z,21.92
2024-01-06T04:02:21.239Z,22.88
2024-01-06T04:04:48.483Z,22.42
2024-01-06T04:07:15.971Z,20.33
2024-01-06T04:09:44.677Z,20.77
2024-01-06T04:12:12.203Z,20.20
2024-01-06T04:14:39.363Z,21.13
2024-01-06T04:17:06.848Z,19.90
2024-01-06T04:19:34.072Z,18.15
2024-01-06T04:22:01.706Z,18.75
2024-01-06T04:24:29.345Z,21.63
2024-01-06T04:26:56.845Z,20.90
2024-01-06T04:29:23.904Z,19.65
2024-01-06T04:31:51.383Z,19.27
2024-01-06T04:34:19.164Z,17.52
2024-01-06T04:36:46.715Z,18.02
2024-01-06T04:39:14.584Z,17.77
2024-01-06T04:41:42.070Z,18.90
2024-01-06T04:44:09.254Z,21.92
2024-01-06T04:46:36.689Z,19.27
2024-01-06T04:49:03.993Z,20.08
2024-01-06T04:51:31.501Z,18.83
2024-01-06T04:53:58.974Z,19.25
2024-01-06T04:56:26.480Z,19.35
2024-01-06T04:58:53.675Z,20.10
2024-01-06T05:01:21.746Z,19.92
2024-01-06T05:03:49.154Z,19.60
2024-01-06T05:06:16.784Z,19.25
2024-01-06T05:08:46.102Z,19.42
2024-01-06T05:11:13.758Z,17.95
2024-01-06T05:13:41.198Z,20.15
2024-01-06T05:16:10.103Z,17.75
2024-01-06T05:18:37.350Z,17.52
2024-01-06T05:21:05.166Z,18.23
2024-01-06T05:23:32.279Z,19.30
2024-01-06T05:25:59.700Z,17.92
2024-01-06T05:28:26.942Z,18.40
2024-01-06T05:30:54.543Z,17.10
2024-01-06T05:33:21.828Z,16.52
2024-01-06T05:35:49.509Z,17.80
2024-01-06T05:38:18.232Z,19.35
2024-01-06T05:40:45.662Z,21.17
2024-01-06T05:43:12.757Z,19.85
2024-01-06T05:45:43.148Z,18.95
2024-01-06T05:48:13.682Z,17.90
2024-01-06T05:50:42.124Z,18.45
2024-01-06T05:53:10.263Z,19.27
2024-01-06T05:55:37.708Z,21.35
2024-01-06T05:58:04.862Z,18.60
2024-01-06T06:00:35.300Z,16.35
2024-01-06T06:03:02.561Z,16.25
2024-01-06T06:05:30.153Z,15.30
2024-01-06T06:07:57.422Z,16.50
2024-01-06T06:10:25.000Z,15.40
2024-01-06T06:12:52.191Z,16.23
2024-01-06T06:15:19.872Z,14.75
2024-01-06T06:17:47.856Z,14.98
2024-01-06T06:20:15.652Z,15.60
2024-01-06T06:22:42.748Z,15.82
2024-01-06T06:25:10.302Z,15.40
2024-01-06T06:27:38.139Z,18.50
2024-01-06T06:30:06.187Z,17.35
2024-01-06T06:32:33.371Z,17.42
2024-01-06T06:35:00.930Z,17.67
2024-01-06T06:37:28.480Z,18.35
2024-01-06T06:39:55.663Z,18.98
2024-01-06T06:42:23.215Z,16.45
2024-01-06T06:44:50.339Z,16.92
2024-01-06T06:47:17.968Z,17.73
2024-01-06T06:49:45.205Z,17.50
2024-01-06T06:52:13.610Z,20.02
2024-01-06T06:54:40.718Z,20.40
2024-01-06T06:57:08.137Z,20.35
2024-01-06T06:59:35.248Z,20.30
2024-01-06T07:02:03.276Z,21.95
2024-01-06T07:04:30.465Z,22.23
2024-01-06T07:06:58.498Z,21.92
2024-01-06T07:09:25.926Z,22.23
2024-01-06T07:11:53.388Z,21.85
2024-01-06T07:14:20.934Z,20.85
2024-01-06T07:16:48.374Z,20.35
2024-01-06T07:19:16.671Z,21.27
2024-01-06T07:21:44.203Z,22.25
2024-01-06T07:24:11.437Z,22.65
2024-01-06T07:26:38.826Z,23.92
2024-01-06T07:29:05.962Z,24.10
2024-01-06T07:31:33.703Z,19.52
2024-01-06T07:34:01.565Z,19.55
2024-01-06T07:36:29.076Z,20.00
2024-01-06T07:38:56.666Z,19.30
2024-01-06T07:41:24.179Z,23.48
2024-01-06T07:43:51.293Z,24.27
2024-01-06T07:46:20.675Z,21.45
2024-01-06T07:48:48.096Z,22.42
2024-01-06T07:51:15.818Z,23.25
2024-01-06T07:53:43.558Z,24.90
2024-01-06T07:56:11.076Z,23.45
2024-01-06T07:58:38.228Z,24.73
2024-01-06T08:01:05.958Z,21.95
2024-01-06T08:03:33.274Z,22.77
2024-01-06T08:06:01.041Z,24.92
2024-01-06T08:08:29.700Z,22.35
2024-01-06T08:10:57.051Z,21.92
2024-01-06T08:13:24.169Z,24.02
2024-01-06T08:15:52.142Z,23.60
2024-01-06T08:18:19.854Z,24.13
2024-01-06T08:20:47.323Z,20.05
2024-01-06T08:23:14.438Z,21.80
2024-01-06T08:25:41.912Z,18.88
2024-01-06T08:28:09.441Z,18.63
2024-01-06T08:30:36.995Z,20.27
2024-01-06T08:33:04.772Z,19.90
2024-01-06T08:35:32.790Z,19.33
2024-01-06T08:37:59.876Z,18.65
2024-01-06T08:40:28.318Z,16.15
2024-01-06T08:42:55.704Z,16.23
2024-01-06T08:45:23.770Z,15.73
2024-01-06T08:47:51.025Z,17.90
2024-01-06T08:50:18.542Z,18.65
2024-01-06T08:52:45.703Z,17.65
2024-01-06T08:55:13.189Z,18.95
2024-01-06T08:57:40.523Z,17.05
2024-01-06T09:00:10.335Z,17.95
2024-01-06T09:02:37.478Z,16.77
2024-01-06T09:05:05.558Z,18.88
2024-01-06T09:07:33.019Z,19.67
2024-01-06T09:10:00.822Z,18.48
2024-01-06T09:12:28.131Z,19.75
2024-01-06T09:14:55.621Z,17.55
2024-01-06T09:17:23.900Z,19.02
2024-01-06T09:19:51.596Z,17.35
2024-01-06T09:22:18.725Z,18.23
2024-01-06T09:24:46.110Z,17.13
2024-01-06T09:27:14.195Z,16.95
2024-01-06T09:29:41.715Z,14.95
2024-01-06T09:32:09.005Z,14.75
2024-01-06T09:34:40.095Z,14.02
2024-01-06T09:37:07.670Z,13.50
2024-01-06T09:39:35.780Z,9.93
2024-01-06T09:42:02.959Z,9.63
2024-01-06T09:44:31.229Z,9.05
2024-01-06T09:47:00.712Z,10.18
2024-01-06T09:49:30.077Z,10.05
2024-01-06T09:52:00.503Z,8.75
2024-01-06T09:54:35.006Z,10.18
2024-01-06T09:57:07.261Z,10.18
2024-01-06T09:59:37.655Z,9.23
2024-01-06T10:02:07.120Z,10.75
2024-01-06T10:04:34.705Z,10.80
2024-01-06T10:07:02.053Z,10.15
2024-01-06T10:09:30.270Z,9.25
2024-01-06T10:11:58.302Z,8.32
2024-01-06T10:14:26.090Z,9.13
2024-01-06T10:16:54.074Z,9.13
2024-01-06T10:19:22.338Z,8.68
2024-01-06T10:21:50.397Z,8.10
2024-01-06T10:24:23.114Z,7.93
2024-01-06T10:26:50.321Z,7.45
2024-01-06T10:29:17.745Z,8.38
2024-01-06T10:31:45.251Z,7.68
2024-01-06T10:34:12.738Z,8.73
2024-01-06T10:36:40.194Z,8.35
2024-01-06T10:39:08.488Z,6.88
2024-01-06T10:41:36.556Z,7.50
2024-01-06T10:44:05.190Z,7.15
2024-01-06T10:46:34.081Z,7.55
2024-01-06T10:49:02.416Z,8.88
2024-01-06T10:51:32.049Z,7.07
2024-01-06T10:54:01.675Z,7.88
2024-01-06T10:56:30.959Z,7.18
2024-01-06T10:58:58.596Z,7.65
2024-01-06T11:01:28.169Z,5.97
2024-01-06T11:03:58.457Z,6.50
2024-01-06T11:06:26.894Z,6.63
2024-01-06T11:09:07.519Z,17.63
2024-01-06T11:11:37.420Z,15.63
2024-01-06T11:14:25.816Z,15.68
2024-01-06T11:16:54.217Z,17.13
2024-01-06T11:19:39.937Z,16.98
2024-01-06T11:22:38.365Z,16.13
2024-01-06T11:25:12.245Z,17.65
2024-01-06T11:27:40.192Z,14.93
2024-01-06T11:30:08.534Z,12.75
2024-01-06T11:32:40.291Z,17.00
2024-01-06T11:35:11.123Z,14.52
2024-01-06T11:37:53.114Z,14.15
2024-01-06T11:40:25.252Z,13.30
2024-01-06T11:43:11.595Z,13.98
2024-01-06T11:45:42.707Z,12.57
2024-01-06T11:48:13.509Z,15.43
2024-01-06T11:50:42.044Z,14.45
2024-01-06T11:53:12.866Z,15.27
2024-01-06T11:55:41.452Z,15.10
2024-01-06T11:58:08.986Z,13.18
2024-01-06T12:00:44.224Z,13.30
2024-01-06T12:03:12.193Z,13.40
2024-01-06T12:05:39.885Z,14.15
2024-01-06T12:08:08.362Z,14.80
2024-01-06T12:10:43.358Z,17.17
2024-01-06T12:13:15.198Z,16.02
2024-01-06T12:15:44.554Z,24.55
2024-01-06T12:18:11.928Z,18.05
2024-01-06T12:20:39.511Z,22.45
2024-01-06T12:23:07.986Z,18.73
2024-01-06T12:25:40.191Z,19.67
2024-01-06T12:28:08.687Z,18.15
2024-01-06T12:30:37.516Z,18.35
2024-01-06T12:33:05.914Z,21.17
2024-01-06T12:35:33.552Z,19.90
2024-01-06T12:38:02.754Z,17.38
2024-01-06T12:40:30.254Z,17.02
2024-01-06T12:42:57.462Z,15.60
2024-01-06T12:45:24.906Z,14.85
2024-01-06T12:47:53.087Z,15.40
2024-01-06T12:50:20.705Z,15.77
2024-01-06T12:52:47.828Z,14.63
2024-01-06T12:55:15.301Z,16.10
2024-01-06T12:57:43.660Z,15.60
2024-01-06T13:00:13.405Z,17.25
2024-01-06T13:02:40.661Z,15.40
2024-01-06T13:05:10.248Z,15.70
2024-01-06T13:07:37.987Z,18.45
2024-01-06T13:10:06.500Z,15.05
2024-01-06T13:12:33.908Z,14.93
2024-01-06T13:15:02.194Z,15.80
2024-01-06T13:17:29.527Z,13.50
2024-01-06T13:19:57.556Z,14.20
2024-01-06T13:22:24.726Z,15.68
2024-01-06T13:24:54.292Z,12.02
2024-01-06T13:27:21.827Z,13.52
2024-01-06T13:29:49.766Z,12.65
2024-01-06T13:32:16.936Z,12.57
2024-01-06T13:34:44.533Z,11.00
2024-01-06T13:37:12.072Z,13.30
2024-01-06T13:39:41.287Z,12.98
2024-01-06T13:42:08.457Z,15.63
2024-01-06T13:44:35.976Z,16.00
2024-01-06T13:47:04.951Z,15.20
2024-01-06T13:49:32.432Z,13.93
2024-01-06T13:51:59.743Z,18.98
2024-01-06T13:54:27.412Z,20.48
2024-01-06T13:56:54.794Z,15.23
2024-01-06T13:59:22.292Z,19.48
2024-01-06T14:01:49.580Z,22.45
2024-01-06T14:04:18.310Z,20.15
2024-01-06T14:06:46.100Z,23.27
2024-01-06T14:09:13.687Z,19.27
2024-01-06T14:11:40.835Z,21.30
2024-01-06T14:14:08.294Z,23.70
2024-01-06T14:16:36.262Z,21.05
2024-01-06T14:19:04.024Z,23.92
2024-01-06T14:21:31.422Z,21.10
2024-01-06T14:23:59.717Z,20.30
2024-01-06T14:26:26.909Z,23.50
2024-01-06T14:28:54.547Z,19.05
2024-01-06T14:31:22.226Z,18.48
2024-01-06T14:33:49.814Z,18.45
2024-01-06T14:36:17.061Z,16.75
2024-01-06T14:38:44.680Z,18.48
2024-01-06T14:41:11.925Z,18.90
2024-01-06T14:43:39.325Z,21.05
2024-01-06T14:46:07.404Z,21.70
2024-01-06T14:48:35.269Z,19.33
2024-01-06T14:51:05.575Z,21.65
2024-01-06T14:53:35.895Z,20.52
2024-01-06T14:56:04.835Z,24.55
2024-01-06T14:58:32.302Z,24.33
2024-01-06T15:01:00.922Z,26.10
2024-01-06T15:03:28.790Z,23.45
2024-01-06T15:05:56.251Z,25.40
2024-01-06T15:08:23.631Z,24.25
2024-01-06T15:10:51.063Z,26.02
2024-01-06T15:13:18.519Z,27.48
2024-01-06T15:15:46.646Z,24.60
2024-01-06T15:18:14.189Z,25.50
2024-01-06T15:20:42.070Z,25.77
2024-01-06T15:23:09.629Z,27.58
2024-01-06T15:25:36.733Z,25.73
2024-01-06T15:28:04.662Z,26.55
2024-01-06T15:30:32.014Z,24.65
2024-01-06T15:32:59.526Z,24.88
2024-01-06T15:35:26.945Z,25.02
2024-01-06T15:37:54.351Z,24.23
2024-01-06T15:40:21.932Z,25.40
2024-01-06T15:42:49.463Z,29.48
2024-01-06T15:45:16.795Z,29.98
2024-01-06T15:47:44.751Z,30.58
2024-01-06T15:50:11.881Z,35.75
2024-01-06T15:52:39.739Z,26.20
2024-01-06T15:55:07.440Z,21.38
2024-01-06T15:57:35.086Z,22.98
2024-01-06T16:00:02.248Z,23.98
2024-01-06T16:02:33.434Z,29.73
2024-01-06T16:05:00.791Z,28.33
2024-01-06T16:07:28.607Z,26.25
2024-01-06T16:09:55.849Z,30.42
2024-01-06T16:12:23.331Z,29.48
2024-01-06T16:14:50.477Z,25.35
2024-01-06T16:17:17.903Z,24.52
2024-01-06T16:19:45.073Z,25.42
2024-01-06T16:22:17.579Z,26.50
2024-01-06T16:24:45.537Z,29.48
2024-01-06T16:27:13.925Z,30.52
2024-01-06T16:29:41.323Z,31.55
2024-01-06T16:32:09.022Z,35.28
2024-01-06T16:34:36.939Z,34.63
2024-01-06T16:37:05.011Z,27.45
2024-01-06T16:39:32.977Z,22.95
2024-01-06T16:42:01.266Z,24.08
2024-01-06T16:44:30.988Z,21.35
2024-01-06T16:47:00.290Z,24.67
2024-01-06T16:49:32.871Z,25.52
2024-01-06T16:52:00.889Z,23.30
2024-01-06T16:54:28.366Z,21.02
2024-01-06T16:56:56.660Z,22.50
2024-01-06T16:59:23.951Z,18.98
2024-01-06T17:01:51.364Z,21.00
2024-01-06T17:04:18.964Z,23.38
2024-01-06T17:06:47.635Z,23.95
2024-01-06T17:09:14.829Z,25.05
2024-01-06T17:11:42.522Z,27.33
2024-01-06T17:14:09.619Z,30.02
2024-01-06T17:16:39.531Z,29.23
2024-01-06T17:19:06.775Z,29.98
2024-01-06T17:21:34.495Z,27.23
2024-01-06T17:24:01.651Z,25.00
2024-01-06T17:26:29.085Z,25.15
2024-01-06T17:28:57.104Z,28.50
2024-01-06T17:31:24.842Z,28.25
2024-01-06T17:33:52.192Z,28.30
2024-01-06T17:36:19.958Z,29.38
2024-01-06T17:38:47.140Z,27.90
2024-01-06T17:41:14.579Z,23.48
2024-01-06T17:43:41.837Z,26.48
2024-01-06T17:46:09.394Z,23.65
2024-01-06T17:48:37.234Z,23.05
2024-01-06T17:51:05.209Z,25.90
2024-01-06T17:53:32.402Z,24.70
2024-01-06T17:55:59.783Z,28.23
2024-01-06T17:58:26.979Z,27.83
2024-01-06T18:00:54.377Z,30.00
2024-01-06T18:03:21.680Z,27.20
2024-01-06T18:05:49.266Z,24.80
2024-01-06T18:08:16.560Z,19.35
2024-01-06T18:10:43.909Z,22.17
2024-01-06T18:13:11.114Z,22.40
2024-01-06T18:15:38.665Z,27.58
2024-01-06T18:18:06.344Z,25.13
2024-01-06T18:20:33.879Z,25.65
2024-01-06T18:23:01.094Z,25.08
2024-01-06T18:25:28.504Z,28.13
2024-01-06T18:27:56.145Z,29.55
2024-01-06T18:30:23.850Z,22.92
2024-01-06T18:32:52.013Z,25.23
2024-01-06T18:35:19.608Z,25.70
2024-01-06T18:37:46.996Z,23.10
2024-01-06T18:40:14.679Z,22.13
2024-01-06T18:42:41.940Z,20.27
2024-01-06T18:45:09.504Z,19.67
2024-01-06T18:47:37.557Z,16.17
2024-01-06T18:50:05.784Z,21.85
2024-01-06T18:52:34.368Z,29.90
2024-01-06T18:55:02.762Z,29.42
2024-01-06T18:57:30.118Z,25.63
2024-01-06T18:59:58.007Z,25.38
2024-01-06T19:02:25.082Z,16.35
2024-01-06T19:04:52.714Z,16.77
2024-01-06T19:07:20.001Z,14.93
2024-01-06T19:09:47.517Z,11.48
2024-01-06T19:12:15.686Z,10.93
2024-01-06T19:14:43.513Z,11.32
2024-01-06T19:17:10.830Z,12.02
2024-01-06T19:19:40.859Z,14.02
2024-01-06T19:22:08.736Z,13.05
2024-01-06T19:24:42.806Z,13.55
2024-01-06T19:27:11.465Z,10.82
2024-01-06T19:29:44.085Z,7.00
2024-01-06T19:32:11.849Z,6.80
2024-01-06T19:34:40.124Z,5.63
2024-01-06T19:37:07.467Z,6.30
2024-01-06T19:39:35.763Z,5.90
2024-01-06T19:42:03.260Z,6.72
2024-01-06T19:44:30.601Z,6.75
2024-01-06T19:47:01.762Z,8.68
2024-01-06T19:49:29.643Z,7.90
2024-01-06T19:51:57.185Z,10.77
2024-01-06T19:54:24.779Z,17.45
2024-01-06T19:56:52.528Z,15.55
2024-01-06T19:59:19.879Z,13.25
2024-01-06T20:01:47.118Z,11.70
2024-01-06T20:04:14.683Z,9.13
2024-01-06T20:06:42.061Z,8.82
2024-01-06T20:09:10.658Z,7.25
2024-01-06T20:11:37.784Z,8.45
2024-01-06T20:14:05.295Z,7.22
2024-01-06T20:16:33.244Z,7.72
2024-01-06T20:19:00.695Z,7.15
2024-01-06T20:21:28.093Z,8.20
2024-01-06T20:23:55.554Z,9.18
2024-01-06T20:26:23.011Z,10.50
2024-01-06T20:28:50.409Z,8.52
2024-01-06T20:31:18.919Z,8.48
2024-01-06T20:33:46.972Z,8.00
2024-01-06T20:36:15.509Z,9.43
2024-01-06T20:38:45.256Z,9.00
2024-01-06T20:41:12.506Z,8.43
2024-01-06T20:43:39.847Z,10.98
2024-01-06T20:46:07.236Z,10.45
2024-01-06T20:48:34.741Z,10.13
2024-01-06T20:51:03.584Z,9.73
2024-01-06T20:53:31.092Z,9.80
2024-01-06T20:55:59.009Z,11.32
2024-01-06T20:58:26.534Z,12.00
2024-01-06T21:00:53.920Z,10.95
2024-01-06T21:03:21.782Z,15.52
2024-01-06T21:05:49.360Z,13.55
2024-01-06T21:08:16.855Z,12.30
2024-01-06T21:10:44.142Z,12.40
2024-01-06T21:13:11.565Z,12.02
2024-01-06T21:15:38.828Z,12.65
2024-01-06T21:18:06.714Z,14.07
2024-01-06T21:20:34.314Z,11.70
2024-01-06T21:23:04.115Z,11.88
2024-01-06T21:25:31.255Z,9.77
2024-01-06T21:27:59.251Z,11.95
2024-01-06T21:30:27.306Z,11.80
2024-01-06T21:33:01.707Z,14.93
2024-01-06T21:35:31.090Z,12.90
2024-01-06T21:37:58.998Z,13.43
2024-01-06T21:40:26.805Z,12.60
2024-01-06T21:42:55.501Z,12.10
2024-01-06T21:45:22.860Z,11.77
2024-01-06T21:47:54.238Z,15.05
2024-01-06T21:50:21.538Z,12.52
2024-01-06T21:52:48.975Z,11.95
2024-01-06T21:55:16.102Z,11.90
2024-01-06T21:57:43.541Z,9.88
2024-01-06T22:00:16.776Z,12.13
2024-01-06T22:02:44.360Z,12.93
2024-01-06T22:05:11.662Z,10.80
2024-01-06T22:07:39.158Z,9.93
2024-01-06T22:10:07.550Z,10.55
2024-01-06T22:12:35.023Z,9.63
2024-01-06T22:15:02.449Z,10.88
2024-01-06T22:17:30.165Z,12.05
2024-01-06T22:19:57.406Z,13.90
2024-01-06T22:22:25.924Z,10.30
2024-01-06T22:24:53.375Z,11.18
2024-01-06T22:27:21.009Z,12.70
2024-01-06T22:29:48.450Z,15.00
2024-01-06T22:32:16.041Z,15.27
2024-01-06T22:34:45.330Z,15.05
2024-01-06T22:37:13.170Z,11.10
2024-01-06T22:39:42.955Z,10.65
2024-01-06T22:42:10.390Z,9.57
2024-01-06T22:44:37.659Z,9.32
2024-01-06T22:47:05.037Z,8.05
2024-01-06T22:49:32.252Z,10.07
2024-01-06T22:51:59.749Z,9.57
2024-01-06T22:54:30.198Z,9.00
2024-01-06T22:56:57.745Z,8.88
2024-01-06T22:59:24.997Z,9.38
2024-01-06T23:01:53.539Z,6.40
2024-01-06T23:04:20.970Z,9.45
2024-01-06T23:06:49.040Z,8.70
2024-01-06T23:09:17.286Z,8.90
2024-01-06T23:11:44.943Z,8.93
2024-01-06T23:14:12.241Z,8.27
2024-01-06T23:16:42.363Z,11.40
2024-01-06T23:19:10.047Z,11.40
2024-01-06T23:21:38.100Z,8.32
2024-01-06T23:24:05.581Z,11.05
2024-01-06T23:26:33.075Z,12.20
2024-01-06T23:29:02.119Z,11.30
2024-01-06T23:31:29.656Z,9.73
2024-01-06T23:33:57.021Z,9.73
2024-01-06T23:36:25.049Z,9.68
2024-01-06T23:38:52.207Z,11.57
2024-01-06T23:41:19.722Z,12.57
2024-01-06T23:43:46.784Z,12.48
2024-01-06T23:46:14.333Z,11.07
2024-01-06T23:48:41.922Z,11.85
2024-01-06T23:51:15.948Z,11.38
2024-01-06T23:53:43.054Z,10.68
2024-01-06T23:56:10.433Z,11.38
2024-01-06T23:58:39.024Z,12.02
